Station: EBSP - 24/04/2019 08:51Z (il y a 5 minutes)
EBSP 240850Z AUTO 19012KT 160V230 9999 // FEW040/// 17/07 Q1001
Vent du 190º - 12 kt (vent de direction variable de 160º à 230º)
Visibilité > 10 km
Nuages épars à 4000 pieds
Température: +17ºC - Point de rosée: +07ºC - QNH: 1001 hPa